sensor_id;sensor_type;location;lat;lon;timestamp;P1;durP1;ratioP1;P2;durP2;ratioP2
462;SDS011;218;51.902;9.542;2024-01-25T00:00:54;3.80;;;2.40;;
462;SDS011;218;51.902;9.542;2024-01-25T00:03:21;3.80;;;2.13;;
462;SDS011;218;51.902;9.542;2024-01-25T00:05:48;7.30;;;3.73;;
462;SDS011;218;51.902;9.542;2024-01-25T00:08:16;5.73;;;2.70;;
462;SDS011;218;51.902;9.542;2024-01-25T00:10:43;3.20;;;2.40;;
462;SDS011;218;51.902;9.542;2024-01-25T00:13:10;4.73;;;2.27;;
462;SDS011;218;51.902;9.542;2024-01-25T00:15:36;5.17;;;2.77;;
462;SDS011;218;51.902;9.542;2024-01-25T00:18:04;5.50;;;2.77;;
462;SDS011;218;51.902;9.542;2024-01-25T00:20:31;4.17;;;2.43;;
462;SDS011;218;51.902;9.542;2024-01-25T00:22:58;6.03;;;3.13;;
462;SDS011;218;51.902;9.542;2024-01-25T00:25:26;3.27;;;2.00;;
462;SDS011;218;51.902;9.542;2024-01-25T00:27:53;4.13;;;2.50;;
462;SDS011;218;51.902;9.542;2024-01-25T00:30:20;3.87;;;2.67;;
462;SDS011;218;51.902;9.542;2024-01-25T00:32:47;4.17;;;2.70;;
462;SDS011;218;51.902;9.542;2024-01-25T00:35:15;5.00;;;2.53;;
462;SDS011;218;51.902;9.542;2024-01-25T00:37:42;4.00;;;3.43;;
462;SDS011;218;51.902;9.542;2024-01-25T00:40:09;4.00;;;3.03;;
462;SDS011;218;51.902;9.542;2024-01-25T00:42:40;4.83;;;2.63;;
462;SDS011;218;51.902;9.542;2024-01-25T00:45:09;4.27;;;2.47;;
462;SDS011;218;51.902;9.542;2024-01-25T00:47:36;6.53;;;2.80;;
462;SDS011;218;51.902;9.542;2024-01-25T00:50:04;5.40;;;2.80;;
462;SDS011;218;51.902;9.542;2024-01-25T00:52:32;3.20;;;2.90;;
462;SDS011;218;51.902;9.542;2024-01-25T00:55:01;3.77;;;2.70;;
462;SDS011;218;51.902;9.542;2024-01-25T00:57:28;6.00;;;2.93;;
462;SDS011;218;51.902;9.542;2024-01-25T00:59:57;4.30;;;3.07;;
462;SDS011;218;51.902;9.542;2024-01-25T01:02:25;4.37;;;2.60;;
462;SDS011;218;51.902;9.542;2024-01-25T01:04:56;3.40;;;2.40;;
462;SDS011;218;51.902;9.542;2024-01-25T01:07:23;3.60;;;2.17;;
462;SDS011;218;51.902;9.542;2024-01-25T01:09:50;6.43;;;3.13;;
462;SDS011;218;51.902;9.542;2024-01-25T01:12:17;6.37;;;2.53;;
462;SDS011;218;51.902;9.542;2024-01-25T01:14:44;5.00;;;3.10;;
462;SDS011;218;51.902;9.542;2024-01-25T01:17:13;3.40;;;2.23;;
462;SDS011;218;51.902;9.542;2024-01-25T01:19:40;4.10;;;2.30;;
462;SDS011;218;51.902;9.542;2024-01-25T01:22:07;5.73;;;2.80;;
462;SDS011;218;51.902;9.542;2024-01-25T01:24:34;5.73;;;3.03;;
462;SDS011;218;51.902;9.542;2024-01-25T01:27:01;4.40;;;2.30;;
462;SDS011;218;51.902;9.542;2024-01-25T01:29:28;5.87;;;3.00;;
462;SDS011;218;51.902;9.542;2024-01-25T01:31:55;4.53;;;2.70;;
462;SDS011;218;51.902;9.542;2024-01-25T01:34:24;4.73;;;2.80;;
462;SDS011;218;51.902;9.542;2024-01-25T01:36:51;4.27;;;2.97;;
462;SDS011;218;51.902;9.542;2024-01-25T01:39:18;2.43;;;2.23;;
462;SDS011;218;51.902;9.542;2024-01-25T01:41:46;6.20;;;2.67;;
462;SDS011;218;51.902;9.542;2024-01-25T01:44:13;3.80;;;2.53;;
462;SDS011;218;51.902;9.542;2024-01-25T01:46:40;3.73;;;2.57;;
462;SDS011;218;51.902;9.542;2024-01-25T01:49:08;4.70;;;2.50;;
462;SDS011;218;51.902;9.542;2024-01-25T01:51:39;3.60;;;2.47;;
462;SDS011;218;51.902;9.542;2024-01-25T01:54:07;5.30;;;3.00;;
462;SDS011;218;51.902;9.542;2024-01-25T01:56:34;5.87;;;2.90;;
462;SDS011;218;51.902;9.542;2024-01-25T01:59:02;3.60;;;2.67;;
462;SDS011;218;51.902;9.542;2024-01-25T02:01:32;4.50;;;3.10;;
462;SDS011;218;51.902;9.542;2024-01-25T02:03:59;3.77;;;2.30;;
462;SDS011;218;51.902;9.542;2024-01-25T02:06:26;5.37;;;2.77;;
462;SDS011;218;51.902;9.542;2024-01-25T02:08:54;3.83;;;2.57;;
462;SDS011;218;51.902;9.542;2024-01-25T02:11:23;3.03;;;2.30;;
462;SDS011;218;51.902;9.542;2024-01-25T02:13:50;5.37;;;2.80;;
462;SDS011;218;51.902;9.542;2024-01-25T02:16:17;3.77;;;2.90;;
462;SDS011;218;51.902;9.542;2024-01-25T02:18:45;4.67;;;2.60;;
462;SDS011;218;51.902;9.542;2024-01-25T02:21:12;2.90;;;2.27;;
462;SDS011;218;51.902;9.542;2024-01-25T02:23:40;5.07;;;2.33;;
462;SDS011;218;51.902;9.542;2024-01-25T02:26:07;3.57;;;2.40;;
462;SDS011;218;51.902;9.542;2024-01-25T02:28:34;5.13;;;2.40;;
462;SDS011;218;51.902;9.542;2024-01-25T02:31:01;5.00;;;2.57;;
462;SDS011;218;51.902;9.542;2024-01-25T02:33:29;4.03;;;2.10;;
462;SDS011;218;51.902;9.542;2024-01-25T02:35:56;3.70;;;2.23;;
462;SDS011;218;51.902;9.542;2024-01-25T02:38:23;4.73;;;2.73;;
462;SDS011;218;51.902;9.542;2024-01-25T02:40:52;5.67;;;2.30;;
462;SDS011;218;51.902;9.542;2024-01-25T02:43:19;3.97;;;2.50;;
462;SDS011;218;51.902;9.542;2024-01-25T02:45:47;3.90;;;2.70;;
462;SDS011;218;51.902;9.542;2024-01-25T02:48:14;3.33;;;2.00;;
462;SDS011;218;51.902;9.542;2024-01-25T02:50:41;4.00;;;2.40;;
462;SDS011;218;51.902;9.542;2024-01-25T02:53:08;5.33;;;2.53;;
462;SDS011;218;51.902;9.542;2024-01-25T02:55:35;3.57;;;2.00;;
462;SDS011;218;51.902;9.542;2024-01-25T02:58:03;5.00;;;2.87;;
462;SDS011;218;51.902;9.542;2024-01-25T03:00:30;4.00;;;2.47;;
462;SDS011;218;51.902;9.542;2024-01-25T03:02:57;4.10;;;2.83;;
462;SDS011;218;51.902;9.542;2024-01-25T03:05:24;2.33;;;1.70;;
462;SDS011;218;51.902;9.542;2024-01-25T03:07:51;4.07;;;2.37;;
462;SDS011;218;51.902;9.542;2024-01-25T03:10:18;4.80;;;2.83;;
462;SDS011;218;51.902;9.542;2024-01-25T03:12:45;3.90;;;2.27;;
462;SDS011;218;51.902;9.542;2024-01-25T03:15:13;3.70;;;2.13;;
462;SDS011;218;51.902;9.542;2024-01-25T03:17:40;4.30;;;2.33;;
462;SDS011;218;51.902;9.542;2024-01-25T03:20:07;3.87;;;2.40;;
462;SDS011;218;51.902;9.542;2024-01-25T03:22:35;5.43;;;2.40;;
462;SDS011;218;51.902;9.542;2024-01-25T03:25:02;5.37;;;2.10;;
462;SDS011;218;51.902;9.542;2024-01-25T03:27:29;4.43;;;2.80;;
462;SDS011;218;51.902;9.542;2024-01-25T03:29:56;7.90;;;2.60;;
462;SDS011;218;51.902;9.542;2024-01-25T03:32:24;6.10;;;2.27;;
462;SDS011;218;51.902;9.542;2024-01-25T03:34:51;4.83;;;2.37;;
462;SDS011;218;51.902;9.542;2024-01-25T03:37:18;4.03;;;2.53;;
462;SDS011;218;51.902;9.542;2024-01-25T03:39:45;2.63;;;1.80;;
462;SDS011;218;51.902;9.542;2024-01-25T03:42:12;5.93;;;2.53;;
462;SDS011;218;51.902;9.542;2024-01-25T03:44:39;4.30;;;2.10;;
462;SDS011;218;51.902;9.542;2024-01-25T03:47:07;3.83;;;2.40;;
462;SDS011;218;51.902;9.542;2024-01-25T03:49:35;9.30;;;2.33;;
462;SDS011;218;51.902;9.542;2024-01-25T03:52:02;5.20;;;2.97;;
462;SDS011;218;51.902;9.542;2024-01-25T03:54:30;3.20;;;2.27;;
462;SDS011;218;51.902;9.542;2024-01-25T03:56:56;7.90;;;3.23;;
462;SDS011;218;51.902;9.542;2024-01-25T03:59:23;4.70;;;2.40;;
462;SDS011;218;51.902;9.542;2024-01-25T04:01:50;7.33;;;2.57;;
462;SDS011;218;51.902;9.542;2024-01-25T04:04:17;3.90;;;2.53;;
462;SDS011;218;51.902;9.542;2024-01-25T04:06:45;9.03;;;2.40;;
462;SDS011;218;51.902;9.542;2024-01-25T04:09:12;5.13;;;3.00;;
462;SDS011;218;51.902;9.542;2024-01-25T04:11:40;5.13;;;2.50;;
462;SDS011;218;51.902;9.542;2024-01-25T04:14:07;11.20;;;2.67;;
462;SDS011;218;51.902;9.542;2024-01-25T04:16:34;3.17;;;2.27;;
462;SDS011;218;51.902;9.542;2024-01-25T04:19:01;4.50;;;3.40;;
462;SDS011;218;51.902;9.542;2024-01-25T04:21:28;4.10;;;2.03;;
462;SDS011;218;51.902;9.542;2024-01-25T04:23:56;3.10;;;2.00;;
462;SDS011;218;51.902;9.542;2024-01-25T04:26:23;5.77;;;2.43;;
462;SDS011;218;51.902;9.542;2024-01-25T04:28:50;3.90;;;2.83;;
462;SDS011;218;51.902;9.542;2024-01-25T04:31:17;3.60;;;2.27;;
462;SDS011;218;51.902;9.542;2024-01-25T04:33:44;8.40;;;3.10;;
462;SDS011;218;51.902;9.542;2024-01-25T04:36:11;4.30;;;1.97;;
462;SDS011;218;51.902;9.542;2024-01-25T04:38:38;7.20;;;3.33;;
462;SDS011;218;51.902;9.542;2024-01-25T04:41:06;5.73;;;2.30;;
462;SDS011;218;51.902;9.542;2024-01-25T04:43:33;3.70;;;2.10;;
462;SDS011;218;51.902;9.542;2024-01-25T04:46:02;5.10;;;2.80;;
462;SDS011;218;51.902;9.542;2024-01-25T04:48:29;4.10;;;2.60;;
462;SDS011;218;51.902;9.542;2024-01-25T04:50:56;4.30;;;2.07;;
462;SDS011;218;51.902;9.542;2024-01-25T04:53:24;2.63;;;1.90;;
462;SDS011;218;51.902;9.542;2024-01-25T04:55:51;4.43;;;3.00;;
462;SDS011;218;51.902;9.542;2024-01-25T04:58:20;6.70;;;2.50;;
462;SDS011;218;51.902;9.542;2024-01-25T05:00:47;3.30;;;2.27;;
462;SDS011;218;51.902;9.542;2024-01-25T05:03:15;6.10;;;2.47;;
462;SDS011;218;51.902;9.542;2024-01-25T05:05:42;6.60;;;2.83;;
462;SDS011;218;51.902;9.542;2024-01-25T05:08:09;3.40;;;2.13;;
462;SDS011;218;51.902;9.542;2024-01-25T05:10:36;3.40;;;2.13;;
462;SDS011;218;51.902;9.542;2024-01-25T05:13:03;4.00;;;2.50;;
462;SDS011;218;51.902;9.542;2024-01-25T05:15:31;3.90;;;2.80;;
462;SDS011;218;51.902;9.542;2024-01-25T05:17:58;6.40;;;2.60;;
462;SDS011;218;51.902;9.542;2024-01-25T05:20:25;4.20;;;2.23;;
462;SDS011;218;51.902;9.542;2024-01-25T05:22:57;3.17;;;2.30;;
462;SDS011;218;51.902;9.542;2024-01-25T05:25:24;4.90;;;3.53;;
462;SDS011;218;51.902;9.542;2024-01-25T05:27:51;5.33;;;2.57;;
462;SDS011;218;51.902;9.542;2024-01-25T05:30:18;5.27;;;2.40;;
462;SDS011;218;51.902;9.542;2024-01-25T05:32:46;3.67;;;2.17;;
462;SDS011;218;51.902;9.542;2024-01-25T05:35:14;5.00;;;2.43;;
462;SDS011;218;51.902;9.542;2024-01-25T05:37:42;3.40;;;2.13;;
462;SDS011;218;51.902;9.542;2024-01-25T05:40:09;5.03;;;2.53;;
462;SDS011;218;51.902;9.542;2024-01-25T05:42:36;2.73;;;1.90;;
462;SDS011;218;51.902;9.542;2024-01-25T05:45:04;3.27;;;2.10;;
462;SDS011;218;51.902;9.542;2024-01-25T05:47:31;3.30;;;2.87;;
462;SDS011;218;51.902;9.542;2024-01-25T05:49:59;5.23;;;3.00;;
462;SDS011;218;51.902;9.542;2024-01-25T05:52:26;7.30;;;3.07;;
462;SDS011;218;51.902;9.542;2024-01-25T05:54:54;9.67;;;2.83;;
462;SDS011;218;51.902;9.542;2024-01-25T05:57:21;5.97;;;2.80;;
462;SDS011;218;51.902;9.542;2024-01-25T05:59:48;4.70;;;2.77;;
462;SDS011;218;51.902;9.542;2024-01-25T06:02:15;3.97;;;2.30;;
462;SDS011;218;51.902;9.542;2024-01-25T06:04:42;5.00;;;2.43;;
462;SDS011;218;51.902;9.542;2024-01-25T06:07:10;4.40;;;2.80;;
462;SDS011;218;51.902;9.542;2024-01-25T06:09:37;3.57;;;2.33;;
462;SDS011;218;51.902;9.542;2024-01-25T06:12:04;3.40;;;2.40;;
462;SDS011;218;51.902;9.542;2024-01-25T06:14:31;5.60;;;3.00;;
462;SDS011;218;51.902;9.542;2024-01-25T06:16:58;4.17;;;2.40;;
462;SDS011;218;51.902;9.542;2024-01-25T06:19:25;3.87;;;2.50;;
462;SDS011;218;51.902;9.542;2024-01-25T06:21:52;2.70;;;2.37;;
462;SDS011;218;51.902;9.542;2024-01-25T06:24:20;4.03;;;2.67;;
462;SDS011;218;51.902;9.542;2024-01-25T06:26:47;2.63;;;1.73;;
462;SDS011;218;51.902;9.542;2024-01-25T06:29:14;3.83;;;2.63;;
462;SDS011;218;51.902;9.542;2024-01-25T06:31:41;4.10;;;2.70;;
462;SDS011;218;51.902;9.542;2024-01-25T06:34:09;6.00;;;2.40;;
462;SDS011;218;51.902;9.542;2024-01-25T06:36:36;4.00;;;2.57;;
462;SDS011;218;51.902;9.542;2024-01-25T06:39:03;4.90;;;2.20;;
462;SDS011;218;51.902;9.542;2024-01-25T06:41:32;3.30;;;2.30;;
462;SDS011;218;51.902;9.542;2024-01-25T06:43:59;3.80;;;2.70;;
462;SDS011;218;51.902;9.542;2024-01-25T06:46:26;4.53;;;2.67;;
462;SDS011;218;51.902;9.542;2024-01-25T06:48:53;2.70;;;1.90;;
462;SDS011;218;51.902;9.542;2024-01-25T06:51:20;2.50;;;1.63;;
462;SDS011;218;51.902;9.542;2024-01-25T06:53:47;6.53;;;2.80;;
462;SDS011;218;51.902;9.542;2024-01-25T06:56:13;3.63;;;2.13;;
462;SDS011;218;51.902;9.542;2024-01-25T06:58:42;4.50;;;2.70;;
462;SDS011;218;51.902;9.542;2024-01-25T07:01:09;3.93;;;2.10;;
462;SDS011;218;51.902;9.542;2024-01-25T07:03:36;4.67;;;1.90;;
462;SDS011;218;51.902;9.542;2024-01-25T07:06:03;4.10;;;2.63;;
462;SDS011;218;51.902;9.542;2024-01-25T07:08:31;4.20;;;2.70;;
462;SDS011;218;51.902;9.542;2024-01-25T07:10:57;4.63;;;2.60;;
462;SDS011;218;51.902;9.542;2024-01-25T07:13:27;3.63;;;2.43;;
462;SDS011;218;51.902;9.542;2024-01-25T07:15:55;3.07;;;2.33;;
462;SDS011;218;51.902;9.542;2024-01-25T07:18:22;3.90;;;1.87;;
462;SDS011;218;51.902;9.542;2024-01-25T07:20:49;5.03;;;2.03;;
462;SDS011;218;51.902;9.542;2024-01-25T07:23:17;4.87;;;3.23;;
462;SDS011;218;51.902;9.542;2024-01-25T07:25:44;2.90;;;1.90;;
462;SDS011;218;51.902;9.542;2024-01-25T07:28:11;4.03;;;2.00;;
462;SDS011;218;51.902;9.542;2024-01-25T07:30:38;4.67;;;2.73;;
462;SDS011;218;51.902;9.542;2024-01-25T07:33:06;2.73;;;2.20;;
462;SDS011;218;51.902;9.542;2024-01-25T07:35:33;4.40;;;2.63;;
462;SDS011;218;51.902;9.542;2024-01-25T07:38:00;4.10;;;1.80;;
462;SDS011;218;51.902;9.542;2024-01-25T07:40:27;4.83;;;1.90;;
462;SDS011;218;51.902;9.542;2024-01-25T07:42:54;4.57;;;2.27;;
462;SDS011;218;51.902;9.542;2024-01-25T07:45:21;3.40;;;2.00;;
462;SDS011;218;51.902;9.542;2024-01-25T07:47:48;4.77;;;1.90;;
462;SDS011;218;51.902;9.542;2024-01-25T07:50:16;4.37;;;3.17;;
462;SDS011;218;51.902;9.542;2024-01-25T07:52:43;4.73;;;2.63;;
462;SDS011;218;51.902;9.542;2024-01-25T07:55:10;6.30;;;2.53;;
462;SDS011;218;51.902;9.542;2024-01-25T07:57:37;3.37;;;2.50;;
462;SDS011;218;51.902;9.542;2024-01-25T08:00:04;7.90;;;4.40;;
462;SDS011;218;51.902;9.542;2024-01-25T08:02:33;4.93;;;2.33;;
462;SDS011;218;51.902;9.542;2024-01-25T08:05:00;9.60;;;2.43;;
462;SDS011;218;51.902;9.542;2024-01-25T08:07:29;2.97;;;1.97;;
462;SDS011;218;51.902;9.542;2024-01-25T08:09:56;5.37;;;2.80;;
462;SDS011;218;51.902;9.542;2024-01-25T08:12:23;3.70;;;2.07;;
462;SDS011;218;51.902;9.542;2024-01-25T08:14:50;6.70;;;3.27;;
462;SDS011;218;51.902;9.542;2024-01-25T08:17:17;4.23;;;2.20;;
462;SDS011;218;51.902;9.542;2024-01-25T08:19:45;2.20;;;1.83;;
462;SDS011;218;51.902;9.542;2024-01-25T08:22:12;5.13;;;2.40;;
462;SDS011;218;51.902;9.542;2024-01-25T08:24:40;4.10;;;2.30;;
462;SDS011;218;51.902;9.542;2024-01-25T08:27:08;4.13;;;2.07;;
462;SDS011;218;51.902;9.542;2024-01-25T08:29:35;6.90;;;2.80;;
462;SDS011;218;51.902;9.542;2024-01-25T08:32:03;3.53;;;2.10;;
462;SDS011;218;51.902;9.542;2024-01-25T08:34:30;3.70;;;1.80;;
462;SDS011;218;51.902;9.542;2024-01-25T08:36:57;4.37;;;1.87;;
462;SDS011;218;51.902;9.542;2024-01-25T08:39:24;4.53;;;2.40;;
462;SDS011;218;51.902;9.542;2024-01-25T08:41:52;4.93;;;1.70;;
462;SDS011;218;51.902;9.542;2024-01-25T08:44:19;2.93;;;1.93;;
462;SDS011;218;51.902;9.542;2024-01-25T08:46:46;4.63;;;1.70;;
462;SDS011;218;51.902;9.542;2024-01-25T08:49:13;3.77;;;2.13;;
462;SDS011;218;51.902;9.542;2024-01-25T08:51:40;2.97;;;1.63;;
462;SDS011;218;51.902;9.542;2024-01-25T08:54:07;4.40;;;1.77;;
462;SDS011;218;51.902;9.542;2024-01-25T08:56:34;4.30;;;2.40;;
462;SDS011;218;51.902;9.542;2024-01-25T08:59:02;5.20;;;2.20;;
462;SDS011;218;51.902;9.542;2024-01-25T09:01:29;4.53;;;2.20;;
462;SDS011;218;51.902;9.542;2024-01-25T09:03:56;7.57;;;2.93;;
462;SDS011;218;51.902;9.542;2024-01-25T09:06:27;6.10;;;2.83;;
462;SDS011;218;51.902;9.542;2024-01-25T09:08:54;4.20;;;3.10;;
462;SDS011;218;51.902;9.542;2024-01-25T09:11:21;6.60;;;2.37;;
462;SDS011;218;51.902;9.542;2024-01-25T09:13:48;3.90;;;2.43;;
462;SDS011;218;51.902;9.542;2024-01-25T09:16:17;3.40;;;2.10;;
462;SDS011;218;51.902;9.542;2024-01-25T09:18:45;4.27;;;2.20;;
462;SDS011;218;51.902;9.542;2024-01-25T09:21:11;4.70;;;1.97;;
462;SDS011;218;51.902;9.542;2024-01-25T09:23:39;6.63;;;2.57;;
462;SDS011;218;51.902;9.542;2024-01-25T09:26:06;15.73;;;3.87;;
462;SDS011;218;51.902;9.542;2024-01-25T09:28:32;6.23;;;2.10;;
462;SDS011;218;51.902;9.542;2024-01-25T09:30:59;1.73;;;1.50;;
462;SDS011;218;51.902;9.542;2024-01-25T09:33:28;5.90;;;2.10;;
462;SDS011;218;51.902;9.542;2024-01-25T09:35:55;3.73;;;1.93;;
462;SDS011;218;51.902;9.542;2024-01-25T09:38:22;4.53;;;1.73;;
462;SDS011;218;51.902;9.542;2024-01-25T09:40:49;3.60;;;2.67;;
462;SDS011;218;51.902;9.542;2024-01-25T09:43:16;3.00;;;2.10;;
462;SDS011;218;51.902;9.542;2024-01-25T09:45:45;5.03;;;2.43;;
462;SDS011;218;51.902;9.542;2024-01-25T09:48:13;5.50;;;2.60;;
462;SDS011;218;51.902;9.542;2024-01-25T09:50:41;2.73;;;2.20;;
462;SDS011;218;51.902;9.542;2024-01-25T09:53:09;7.20;;;2.37;;
462;SDS011;218;51.902;9.542;2024-01-25T09:55:39;9.57;;;2.93;;
462;SDS011;218;51.902;9.542;2024-01-25T09:58:09;8.40;;;2.90;;
462;SDS011;218;51.902;9.542;2024-01-25T10:00:36;4.63;;;2.80;;
462;SDS011;218;51.902;9.542;2024-01-25T10:03:04;6.33;;;2.47;;
462;SDS011;218;51.902;9.542;2024-01-25T10:05:31;5.37;;;2.63;;
462;SDS011;218;51.902;9.542;2024-01-25T10:07:59;5.10;;;2.60;;
462;SDS011;218;51.902;9.542;2024-01-25T10:10:26;6.57;;;3.03;;
462;SDS011;218;51.902;9.542;2024-01-25T10:12:58;5.90;;;2.30;;
462;SDS011;218;51.902;9.542;2024-01-25T10:15:25;5.50;;;2.50;;
462;SDS011;218;51.902;9.542;2024-01-25T10:17:52;4.90;;;2.50;;
462;SDS011;218;51.902;9.542;2024-01-25T10:20:19;5.30;;;2.50;;
462;SDS011;218;51.902;9.542;2024-01-25T10:22:46;5.40;;;2.90;;
462;SDS011;218;51.902;9.542;2024-01-25T10:25:14;6.93;;;2.40;;
462;SDS011;218;51.902;9.542;2024-01-25T10:27:41;6.47;;;2.87;;
462;SDS011;218;51.902;9.542;2024-01-25T10:30:09;6.50;;;3.20;;
462;SDS011;218;51.902;9.542;2024-01-25T10:32:37;5.43;;;2.70;;
462;SDS011;218;51.902;9.542;2024-01-25T10:35:05;8.10;;;3.40;;
462;SDS011;218;51.902;9.542;2024-01-25T10:37:34;6.37;;;2.90;;
462;SDS011;218;51.902;9.542;2024-01-25T10:40:02;11.40;;;3.97;;
462;SDS011;218;51.902;9.542;2024-01-25T10:42:32;6.93;;;3.20;;
462;SDS011;218;51.902;9.542;2024-01-25T10:44:59;9.03;;;3.43;;
462;SDS011;218;51.902;9.542;2024-01-25T10:47:26;7.93;;;3.23;;
462;SDS011;218;51.902;9.542;2024-01-25T10:49:55;6.40;;;3.20;;
462;SDS011;218;51.902;9.542;2024-01-25T10:52:23;10.07;;;3.97;;
462;SDS011;218;51.902;9.542;2024-01-25T10:54:51;8.60;;;3.83;;
462;SDS011;218;51.902;9.542;2024-01-25T10:57:18;9.67;;;3.23;;
462;SDS011;218;51.902;9.542;2024-01-25T10:59:46;10.27;;;3.83;;
462;SDS011;218;51.902;9.542;2024-01-25T11:02:13;7.53;;;4.20;;
462;SDS011;218;51.902;9.542;2024-01-25T11:04:40;11.90;;;3.90;;
462;SDS011;218;51.902;9.542;2024-01-25T11:07:18;7.60;;;3.80;;
462;SDS011;218;51.902;9.542;2024-01-25T11:09:45;9.33;;;3.90;;
462;SDS011;218;51.902;9.542;2024-01-25T11:12:17;10.57;;;4.63;;
462;SDS011;218;51.902;9.542;2024-01-25T11:14:44;12.17;;;4.27;;
462;SDS011;218;51.902;9.542;2024-01-25T11:17:19;10.00;;;4.30;;
462;SDS011;218;51.902;9.542;2024-01-25T11:19:48;13.77;;;4.50;;
462;SDS011;218;51.902;9.542;2024-01-25T11:22:15;16.20;;;6.07;;
462;SDS011;218;51.902;9.542;2024-01-25T11:24:42;11.47;;;4.73;;
462;SDS011;218;51.902;9.542;2024-01-25T11:27:10;11.70;;;4.50;;
462;SDS011;218;51.902;9.542;2024-01-25T11:29:38;12.97;;;5.03;;
462;SDS011;218;51.902;9.542;2024-01-25T11:32:06;14.40;;;4.07;;
462;SDS011;218;51.902;9.542;2024-01-25T11:34:35;15.87;;;4.93;;
462;SDS011;218;51.902;9.542;2024-01-25T11:37:02;12.27;;;5.20;;
462;SDS011;218;51.902;9.542;2024-01-25T11:39:29;11.17;;;4.17;;
462;SDS011;218;51.902;9.542;2024-01-25T11:41:56;10.80;;;4.70;;
462;SDS011;218;51.902;9.542;2024-01-25T11:44:22;14.53;;;5.00;;
462;SDS011;218;51.902;9.542;2024-01-25T11:46:50;10.13;;;4.33;;
462;SDS011;218;51.902;9.542;2024-01-25T11:49:18;10.17;;;4.33;;
462;SDS011;218;51.902;9.542;2024-01-25T11:51:45;10.70;;;4.80;;
462;SDS011;218;51.902;9.542;2024-01-25T11:54:12;14.97;;;4.70;;
462;SDS011;218;51.902;9.542;2024-01-25T11:56:39;17.73;;;6.13;;
462;SDS011;218;51.902;9.542;2024-01-25T11:59:07;13.33;;;5.13;;
462;SDS011;218;51.902;9.542;2024-01-25T12:01:36;16.37;;;4.50;;
462;SDS011;218;51.902;9.542;2024-01-25T12:04:03;11.93;;;4.83;;
462;SDS011;218;51.902;9.542;2024-01-25T12:06:33;9.87;;;4.47;;
462;SDS011;218;51.902;9.542;2024-01-25T12:09:09;12.67;;;5.40;;
462;SDS011;218;51.902;9.542;2024-01-25T12:14:04;11.00;;;5.00;;
462;SDS011;218;51.902;9.542;2024-01-25T12:16:33;13.47;;;5.50;;
462;SDS011;218;51.902;9.542;2024-01-25T12:19:00;10.20;;;4.47;;
462;SDS011;218;51.902;9.542;2024-01-25T12:21:27;9.90;;;4.47;;
462;SDS011;218;51.902;9.542;2024-01-25T12:23:55;11.73;;;4.30;;
462;SDS011;218;51.902;9.542;2024-01-25T12:26:24;12.13;;;5.07;;
462;SDS011;218;51.902;9.542;2024-01-25T12:28:51;12.07;;;5.40;;
462;SDS011;218;51.902;9.542;2024-01-25T12:31:18;9.17;;;3.83;;
462;SDS011;218;51.902;9.542;2024-01-25T12:33:45;8.97;;;4.53;;
462;SDS011;218;51.902;9.542;2024-01-25T12:36:12;7.90;;;4.40;;
462;SDS011;218;51.902;9.542;2024-01-25T12:38:39;8.73;;;4.00;;
462;SDS011;218;51.902;9.542;2024-01-25T12:41:07;9.80;;;4.27;;
462;SDS011;218;51.902;9.542;2024-01-25T12:43:34;10.37;;;4.53;;
462;SDS011;218;51.902;9.542;2024-01-25T12:46:01;10.83;;;4.33;;
462;SDS011;218;51.902;9.542;2024-01-25T12:48:28;6.40;;;3.63;;
462;SDS011;218;51.902;9.542;2024-01-25T12:50:55;12.63;;;4.57;;
462;SDS011;218;51.902;9.542;2024-01-25T12:53:22;11.50;;;4.13;;
462;SDS011;218;51.902;9.542;2024-01-25T12:55:49;8.90;;;4.10;;
462;SDS011;218;51.902;9.542;2024-01-25T12:58:17;5.73;;;3.60;;
462;SDS011;218;51.902;9.542;2024-01-25T13:00:44;10.20;;;4.10;;
462;SDS011;218;51.902;9.542;2024-01-25T13:03:11;9.60;;;4.60;;
462;SDS011;218;51.902;9.542;2024-01-25T13:05:38;9.40;;;4.93;;
462;SDS011;218;51.902;9.542;2024-01-25T13:08:05;7.93;;;4.57;;
462;SDS011;218;51.902;9.542;2024-01-25T13:10:33;9.10;;;4.40;;
462;SDS011;218;51.902;9.542;2024-01-25T13:12:59;7.40;;;3.93;;
462;SDS011;218;51.902;9.542;2024-01-25T13:15:28;7.70;;;4.03;;
462;SDS011;218;51.902;9.542;2024-01-25T13:17:55;8.57;;;3.67;;
462;SDS011;218;51.902;9.542;2024-01-25T13:20:23;8.63;;;4.27;;
462;SDS011;218;51.902;9.542;2024-01-25T13:22:49;9.77;;;4.07;;
462;SDS011;218;51.902;9.542;2024-01-25T13:25:16;6.63;;;3.77;;
462;SDS011;218;51.902;9.542;2024-01-25T13:27:43;7.70;;;3.77;;
462;SDS011;218;51.902;9.542;2024-01-25T13:30:10;11.33;;;3.80;;
462;SDS011;218;51.902;9.542;2024-01-25T13:32:40;7.63;;;3.67;;
462;SDS011;218;51.902;9.542;2024-01-25T13:35:07;10.33;;;4.27;;
462;SDS011;218;51.902;9.542;2024-01-25T13:37:34;7.40;;;3.97;;
462;SDS011;218;51.902;9.542;2024-01-25T13:40:01;7.53;;;4.40;;
462;SDS011;218;51.902;9.542;2024-01-25T13:42:28;10.10;;;3.63;;
462;SDS011;218;51.902;9.542;2024-01-25T13:44:55;9.03;;;3.40;;
462;SDS011;218;51.902;9.542;2024-01-25T13:47:22;7.97;;;4.60;;
462;SDS011;218;51.902;9.542;2024-01-25T13:49:50;6.97;;;3.23;;
462;SDS011;218;51.902;9.542;2024-01-25T13:52:18;7.97;;;4.00;;
462;SDS011;218;51.902;9.542;2024-01-25T13:54:45;7.73;;;3.23;;
462;SDS011;218;51.902;9.542;2024-01-25T13:57:14;6.80;;;4.17;;
462;SDS011;218;51.902;9.542;2024-01-25T13:59:41;9.33;;;4.43;;
462;SDS011;218;51.902;9.542;2024-01-25T14:02:08;6.33;;;3.50;;
462;SDS011;218;51.902;9.542;2024-01-25T14:04:35;5.90;;;3.43;;
462;SDS011;218;51.902;9.542;2024-01-25T14:07:03;5.40;;;3.30;;
462;SDS011;218;51.902;9.542;2024-01-25T14:09:30;8.00;;;4.33;;
462;SDS011;218;51.902;9.542;2024-01-25T14:11:57;10.30;;;5.20;;
462;SDS011;218;51.902;9.542;2024-01-25T14:14:24;6.63;;;3.30;;
462;SDS011;218;51.902;9.542;2024-01-25T14:16:51;8.20;;;3.97;;
462;SDS011;218;51.902;9.542;2024-01-25T14:19:18;7.00;;;4.00;;
462;SDS011;218;51.902;9.542;2024-01-25T14:21:45;6.80;;;4.10;;
462;SDS011;218;51.902;9.542;2024-01-25T14:24:15;9.90;;;4.23;;
462;SDS011;218;51.902;9.542;2024-01-25T14:26:43;7.90;;;3.47;;
462;SDS011;218;51.902;9.542;2024-01-25T14:29:11;9.17;;;3.70;;
462;SDS011;218;51.902;9.542;2024-01-25T14:31:38;8.70;;;3.63;;
462;SDS011;218;51.902;9.542;2024-01-25T14:34:06;6.43;;;3.60;;
462;SDS011;218;51.902;9.542;2024-01-25T14:36:33;4.93;;;3.27;;
462;SDS011;218;51.902;9.542;2024-01-25T14:39:00;5.40;;;3.07;;
462;SDS011;218;51.902;9.542;2024-01-25T14:41:29;7.40;;;3.30;;
462;SDS011;218;51.902;9.542;2024-01-25T14:43:56;8.33;;;3.80;;
462;SDS011;218;51.902;9.542;2024-01-25T14:46:23;5.57;;;3.70;;
462;SDS011;218;51.902;9.542;2024-01-25T14:48:50;5.80;;;3.60;;
462;SDS011;218;51.902;9.542;2024-01-25T14:51:17;9.17;;;4.10;;
462;SDS011;218;51.902;9.542;2024-01-25T14:53:45;8.67;;;2.80;;
462;SDS011;218;51.902;9.542;2024-01-25T14:56:12;6.40;;;2.90;;
462;SDS011;218;51.902;9.542;2024-01-25T14:58:40;7.70;;;3.90;;
462;SDS011;218;51.902;9.542;2024-01-25T15:01:07;5.07;;;3.90;;
462;SDS011;218;51.902;9.542;2024-01-25T15:03:34;7.87;;;4.23;;
462;SDS011;218;51.902;9.542;2024-01-25T15:06:01;7.33;;;3.50;;
462;SDS011;218;51.902;9.542;2024-01-25T15:08:28;5.87;;;2.70;;
462;SDS011;218;51.902;9.542;2024-01-25T15:10:55;6.90;;;3.60;;
462;SDS011;218;51.902;9.542;2024-01-25T15:13:21;6.87;;;3.10;;
462;SDS011;218;51.902;9.542;2024-01-25T15:15:50;6.10;;;3.07;;
462;SDS011;218;51.902;9.542;2024-01-25T15:18:17;9.53;;;3.13;;
462;SDS011;218;51.902;9.542;2024-01-25T15:20:44;6.63;;;3.10;;
462;SDS011;218;51.902;9.542;2024-01-25T15:23:11;6.00;;;2.97;;
462;SDS011;218;51.902;9.542;2024-01-25T15:25:38;7.80;;;4.00;;
462;SDS011;218;51.902;9.542;2024-01-25T15:28:05;5.87;;;3.77;;
462;SDS011;218;51.902;9.542;2024-01-25T15:30:32;7.17;;;3.83;;
462;SDS011;218;51.902;9.542;2024-01-25T15:33:00;5.90;;;3.50;;
462;SDS011;218;51.902;9.542;2024-01-25T15:35:27;8.93;;;3.77;;
462;SDS011;218;51.902;9.542;2024-01-25T15:37:54;7.50;;;3.73;;
462;SDS011;218;51.902;9.542;2024-01-25T15:40:21;7.50;;;3.70;;
462;SDS011;218;51.902;9.542;2024-01-25T15:42:48;6.77;;;3.30;;
462;SDS011;218;51.902;9.542;2024-01-25T15:45:16;5.63;;;4.07;;
462;SDS011;218;51.902;9.542;2024-01-25T15:47:43;7.83;;;3.63;;